createdAt,value
2023-05-19T00:03:34.037Z,2.88
2023-05-19T00:08:38.464Z,1.80
2023-05-19T00:13:40.580Z,1.85
2023-05-19T00:18:43.364Z,1.77
2023-05-19T00:23:45.711Z,2.30
2023-05-19T00:28:47.457Z,2.35
2023-05-19T00:33:49.234Z,0.30
2023-05-19T00:38:51.956Z,1.20
2023-05-19T00:43:53.828Z,1.58
2023-05-19T00:48:55.542Z,1.88
2023-05-19T00:53:57.905Z,2.28
2023-05-19T00:59:00.974Z,2.50
2023-05-19T01:04:04.112Z,2.42
2023-05-19T01:09:06.194Z,1.75
2023-05-19T01:14:09.734Z,1.55
2023-05-19T01:19:21.043Z,2.17
2023-05-19T01:24:30.552Z,0.20
2023-05-19T01:29:42.741Z,2.33
2023-05-19T01:34:46.620Z,2.15
2023-05-19T01:39:48.674Z,2.65
2023-05-19T01:44:52.071Z,1.80
2023-05-19T01:49:54.524Z,2.20
2023-05-19T01:54:56.277Z,2.20
2023-05-19T02:00:13.393Z,2.50
2023-05-19T02:05:29.527Z,2.45
2023-05-19T02:10:37.589Z,2.22
2023-05-19T02:15:42.395Z,2.92
2023-05-19T02:20:44.331Z,2.40
2023-05-19T02:25:46.191Z,2.55
2023-05-19T02:30:48.233Z,2.40
2023-05-19T02:35:50.467Z,2.72
2023-05-19T02:40:55.746Z,1.90
2023-05-19T02:45:57.669Z,2.13
2023-05-19T02:51:01.372Z,2.65
2023-05-19T02:56:03.693Z,2.45
2023-05-19T03:01:05.534Z,3.13
2023-05-19T03:06:10.654Z,1.88
2023-05-19T03:11:12.510Z,2.95
2023-05-19T03:16:14.594Z,1.10
2023-05-19T03:21:16.512Z,2.13
2023-05-19T03:26:18.299Z,3.88
2023-05-19T03:31:20.178Z,3.90
2023-05-19T03:36:22.684Z,3.50
2023-05-19T03:41:24.741Z,2.83
2023-05-19T03:46:28.441Z,1.52
2023-05-19T03:57:05.210Z,3.22
2023-05-19T04:02:08.393Z,3.75
2023-05-19T04:07:10.403Z,3.50
2023-05-19T04:12:12.150Z,4.35
2023-05-19T04:17:14.049Z,4.57
2023-05-19T04:22:15.961Z,3.55
2023-05-19T04:27:18.277Z,3.22
2023-05-19T04:32:20.309Z,3.45
2023-05-19T04:37:22.896Z,3.20
2023-05-19T04:42:28.794Z,0.17
2023-05-19T04:47:30.764Z,4.72
2023-05-19T04:52:33.988Z,1.52
2023-05-19T04:57:37.829Z,4.78
2023-05-19T05:02:40.245Z,4.75
2023-05-19T05:07:43.172Z,3.67
2023-05-19T05:12:46.688Z,0.10
2023-05-19T05:17:48.871Z,3.97
2023-05-19T05:22:51.327Z,3.65
2023-05-19T05:27:54.286Z,2.40
2023-05-19T05:32:56.640Z,0.55
2023-05-19T05:38:09.068Z,3.45
2023-05-19T05:43:12.196Z,3.88
2023-05-19T05:48:21.263Z,4.05
2023-05-19T05:53:25.389Z,3.60
2023-05-19T05:58:28.958Z,4.63
2023-05-19T06:03:32.083Z,3.63
2023-05-19T06:08:41.579Z,4.00
2023-05-19T06:13:43.650Z,3.90
2023-05-19T06:18:51.469Z,4.15
2023-05-19T06:23:54.352Z,4.35
2023-05-19T06:28:56.529Z,4.18
2023-05-19T06:34:01.506Z,4.30
2023-05-19T06:39:06.307Z,4.05
2023-05-19T06:44:11.305Z,4.07
2023-05-19T06:49:13.134Z,3.47
2023-05-19T06:54:19.378Z,4.38
2023-05-19T06:59:26.005Z,3.85
2023-05-19T07:04:28.046Z,4.30
2023-05-19T07:09:31.517Z,3.95
2023-05-19T07:14:33.492Z,4.32
2023-05-19T07:19:39.180Z,5.00
2023-05-19T07:24:42.061Z,3.70
2023-05-19T07:29:44.168Z,4.68
2023-05-19T07:34:46.026Z,4.95
2023-05-19T07:39:48.013Z,4.50
2023-05-19T07:44:52.537Z,4.47
2023-05-19T07:49:55.929Z,4.25
2023-05-19T07:54:59.161Z,3.60
2023-05-19T08:00:01.229Z,4.90
2023-05-19T08:05:13.528Z,4.00
2023-05-19T08:10:15.415Z,4.15
2023-05-19T08:15:17.224Z,3.25
2023-05-19T08:20:23.012Z,3.25
2023-05-19T08:25:30.355Z,3.03
2023-05-19T08:30:32.532Z,2.15
2023-05-19T08:35:34.774Z,3.33
2023-05-19T08:40:38.168Z,0.60
2023-05-19T08:45:48.415Z,3.25
2023-05-19T08:51:03.240Z,2.70
2023-05-19T08:56:11.194Z,3.25
2023-05-19T09:01:19.443Z,2.45
2023-05-19T09:06:23.464Z,2.65
2023-05-19T09:11:25.356Z,2.67
2023-05-19T09:16:43.722Z,2.35
2023-05-19T09:22:14.836Z,3.13
2023-05-19T09:32:52.869Z,2.92
2023-05-19T09:38:02.179Z,3.47
2023-05-19T09:43:08.136Z,2.85
2023-05-19T09:48:12.492Z,2.13
2023-05-19T09:53:18.771Z,2.40
2023-05-19T09:58:25.766Z,2.03
2023-05-19T10:03:33.100Z,2.30
2023-05-19T10:08:38.342Z,1.65
2023-05-19T10:13:46.745Z,1.73
2023-05-19T10:18:51.862Z,2.65
2023-05-19T10:23:54.625Z,1.98
2023-05-19T10:28:58.786Z,1.90
2023-05-19T10:34:22.741Z,2.00
2023-05-19T10:39:45.476Z,1.70
2023-05-19T10:45:39.209Z,1.98
2023-05-19T10:50:59.037Z,1.70
2023-05-19T10:56:16.142Z,2.40
2023-05-19T11:08:35.194Z,1.70
2023-05-19T11:27:43.205Z,1.77
2023-05-19T11:41:33.215Z,2.15
2023-05-19T11:46:27.106Z,2.07
2023-05-19T11:51:39.707Z,1.60
2023-05-19T11:56:46.696Z,1.70
2023-05-19T12:01:57.411Z,1.80
2023-05-19T12:07:31.063Z,1.40
2023-05-19T12:12:55.528Z,1.30
2023-05-19T12:18:31.347Z,1.60
2023-05-19T12:24:02.306Z,1.77
2023-05-19T12:29:54.027Z,1.80
2023-05-19T12:35:21.985Z,2.08
2023-05-19T12:40:52.755Z,1.45
2023-05-19T12:46:23.168Z,1.73
2023-05-19T12:51:39.034Z,1.77
2023-05-19T12:56:51.438Z,1.48
2023-05-19T13:02:03.031Z,1.67
2023-05-19T13:07:25.669Z,1.90
2023-05-19T13:12:31.361Z,1.35
2023-05-19T13:31:22.987Z,1.70
2023-05-19T13:51:01.230Z,1.20
2023-05-19T13:56:34.506Z,1.55
2023-05-19T14:08:35.608Z,1.55
2023-05-19T14:14:14.781Z,1.52
2023-05-19T14:27:39.814Z,1.08
2023-05-19T14:32:55.733Z,1.20
2023-05-19T14:37:58.286Z,1.42
2023-05-19T14:43:05.098Z,1.10
2023-05-19T14:48:06.910Z,1.30
2023-05-19T14:53:08.844Z,1.20
2023-05-19T14:58:26.848Z,1.23
2023-05-19T15:03:33.042Z,1.20
2023-05-19T15:08:39.400Z,1.27
2023-05-19T15:13:41.255Z,1.20
2023-05-19T15:19:23.000Z,1.42
2023-05-19T15:24:25.260Z,1.25
2023-05-19T15:30:18.356Z,1.30
2023-05-19T15:35:54.345Z,1.65
2023-05-19T15:41:01.786Z,1.40
2023-05-19T15:46:16.596Z,1.20
2023-05-19T15:51:44.338Z,1.20
2023-05-19T15:56:55.097Z,1.40
2023-05-19T16:02:07.329Z,1.50
2023-05-19T16:07:09.171Z,1.35
2023-05-19T16:12:10.970Z,1.80
2023-05-19T16:17:13.880Z,1.25
2023-05-19T16:22:16.906Z,1.48
2023-05-19T16:27:18.938Z,1.20
2023-05-19T16:32:21.272Z,1.23
2023-05-19T16:37:23.076Z,1.48
2023-05-19T16:42:25.382Z,1.50
2023-05-19T16:47:27.240Z,1.50
2023-05-19T16:52:31.950Z,1.30
2023-05-19T16:57:33.779Z,1.80
2023-05-19T17:02:35.607Z,1.50
2023-05-19T17:07:39.369Z,1.55
2023-05-19T17:12:41.178Z,1.42
2023-05-19T17:17:45.295Z,1.58
2023-05-19T17:22:47.109Z,1.55
2023-05-19T17:27:48.994Z,1.80
2023-05-19T17:32:51.122Z,1.67
2023-05-19T17:37:53.042Z,1.95
2023-05-19T17:42:54.882Z,1.65
2023-05-19T17:47:56.729Z,1.55
2023-05-19T17:52:58.941Z,1.40
2023-05-19T17:58:01.290Z,2.00
2023-05-19T18:03:04.940Z,1.85
2023-05-19T18:08:09.427Z,1.80
2023-05-19T18:13:14.059Z,1.77
2023-05-19T18:18:17.408Z,1.90
2023-05-19T18:23:20.553Z,1.70
2023-05-19T18:28:24.045Z,1.67
2023-05-19T18:33:27.305Z,1.90
2023-05-19T18:38:30.354Z,1.67
2023-05-19T18:43:32.510Z,2.00
2023-05-19T18:48:34.557Z,1.92
2023-05-19T18:53:37.093Z,1.80
2023-05-19T18:58:38.918Z,1.77
2023-05-19T19:03:41.960Z,1.90
2023-05-19T19:08:44.436Z,1.85
2023-05-19T19:13:46.370Z,2.10
2023-05-19T19:18:48.253Z,2.03
2023-05-19T19:23:54.774Z,1.65
2023-05-19T19:28:56.797Z,1.95
2023-05-19T19:34:03.098Z,1.75
2023-05-19T19:39:05.127Z,2.03
2023-05-19T19:44:08.018Z,2.10
2023-05-19T19:49:09.833Z,2.00
2023-05-19T19:54:11.630Z,1.77
2023-05-19T19:59:13.487Z,1.77
2023-05-19T20:04:15.637Z,2.70
2023-05-19T20:09:19.791Z,3.45
2023-05-19T20:14:21.847Z,4.32
2023-05-19T20:19:25.611Z,4.18
2023-05-19T20:24:27.508Z,3.85
2023-05-19T20:29:29.394Z,3.28
2023-05-19T20:34:31.419Z,3.75
2023-05-19T20:39:34.425Z,3.00
2023-05-19T20:44:36.362Z,3.70
2023-05-19T20:49:40.506Z,3.63
2023-05-19T20:54:42.662Z,3.75
2023-05-19T20:59:44.635Z,3.80
2023-05-19T21:04:46.484Z,4.50
2023-05-19T21:09:50.441Z,4.82
2023-05-19T21:14:52.418Z,5.05
2023-05-19T21:19:58.018Z,3.88
2023-05-19T21:25:00.032Z,4.25
2023-05-19T21:30:02.048Z,2.95
2023-05-19T21:35:04.919Z,2.70
2023-05-19T21:40:08.059Z,3.00
2023-05-19T21:45:10.325Z,3.08
2023-05-19T21:50:15.689Z,3.20
2023-05-19T21:55:17.518Z,3.53
2023-05-19T22:00:19.353Z,2.92
2023-05-19T22:05:21.272Z,2.92
2023-05-19T22:10:23.317Z,2.80
2023-05-19T22:15:25.150Z,3.08
2023-05-19T22:20:26.919Z,4.40
2023-05-19T22:25:28.803Z,3.75
2023-05-19T22:30:30.836Z,3.85
2023-05-19T22:35:34.025Z,3.28
2023-05-19T22:40:36.248Z,4.40
2023-05-19T22:45:38.560Z,4.47
2023-05-19T22:50:40.708Z,3.40
2023-05-19T22:55:42.629Z,3.72
2023-05-19T23:00:44.459Z,3.67
2023-05-19T23:05:46.518Z,3.45
2023-05-19T23:10:48.252Z,3.38
2023-05-19T23:15:50.014Z,3.90
2023-05-19T23:20:51.833Z,3.78
2023-05-19T23:25:53.586Z,3.70
2023-05-19T23:30:56.059Z,3.38
2023-05-19T23:35:59.713Z,4.07
2023-05-19T23:41:01.747Z,4.80
2023-05-19T23:46:03.642Z,4.13
2023-05-19T23:51:05.649Z,3.80
2023-05-19T23:56:07.785Z,3.20
